createdAt,value
2019-06-08T00:00:16.741Z,996.8
2019-06-08T00:03:16.685Z,996.8
2019-06-08T00:06:16.417Z,996.8
2019-06-08T00:09:15.209Z,996.7
2019-06-08T00:12:16.875Z,996.6
2019-06-08T00:15:16.149Z,996.6
2019-06-08T00:18:15.770Z,996.7
2019-06-08T00:21:15.556Z,996.7
2019-06-08T00:24:15.741Z,996.7
2019-06-08T00:27:16.003Z,996.9
2019-06-08T00:30:15.481Z,997.0
2019-06-08T00:33:16.866Z,996.9
2019-06-08T00:36:16.526Z,997.0
2019-06-08T00:39:15.310Z,997.1
2019-06-08T00:42:15.150Z,997.0
2019-06-08T00:45:15.597Z,996.8
2019-06-08T00:48:16.636Z,996.9
2019-06-08T00:51:16.727Z,997.0
2019-06-08T00:54:15.249Z,996.9
2019-06-08T00:57:15.262Z,996.9
2019-06-08T01:00:15.892Z,997.0
2019-06-08T01:03:15.093Z,997.1
2019-06-08T01:06:15.506Z,997.1
2019-06-08T01:09:15.211Z,997.2
2019-06-08T01:12:15.429Z,997.3
2019-06-08T01:15:15.579Z,997.3
2019-06-08T01:18:15.666Z,997.4
2019-06-08T01:21:15.732Z,997.5
2019-06-08T01:24:15.454Z,997.5
2019-06-08T01:27:15.407Z,997.6
2019-06-08T01:30:15.869Z,997.4
2019-06-08T01:33:15.837Z,997.6
2019-06-08T01:36:15.406Z,997.7
2019-06-08T01:39:15.665Z,997.6
2019-06-08T01:42:15.849Z,997.6
2019-06-08T01:45:15.128Z,997.4
2019-06-08T01:48:19.919Z,997.4
2019-06-08T01:51:14.921Z,997.6
2019-06-08T01:54:15.034Z,997.8
2019-06-08T01:57:15.538Z,997.8
2019-06-08T02:00:29.998Z,997.9
2019-06-08T02:03:15.329Z,998.0
2019-06-08T02:06:15.775Z,998.1
2019-06-08T02:09:15.602Z,998.0
2019-06-08T02:12:15.041Z,997.9
2019-06-08T02:15:15.382Z,998.0
2019-06-08T02:18:15.700Z,997.8
2019-06-08T02:21:15.555Z,998.0
2019-06-08T02:24:15.406Z,998.1
2019-06-08T02:27:15.684Z,998.3
2019-06-08T02:30:15.647Z,998.4
2019-06-08T02:33:14.877Z,998.5
2019-06-08T02:36:15.026Z,998.3
2019-06-08T02:39:15.555Z,998.4
2019-06-08T02:42:15.885Z,998.4
2019-06-08T02:45:15.331Z,998.4
2019-06-08T02:48:15.631Z,998.5
2019-06-08T02:51:15.277Z,998.5
2019-06-08T02:54:15.142Z,998.6
2019-06-08T02:57:14.953Z,998.5
2019-06-08T03:00:15.241Z,998.5
2019-06-08T03:03:15.472Z,998.4
2019-06-08T03:06:15.012Z,998.5
2019-06-08T03:09:15.574Z,998.4
2019-06-08T03:12:14.986Z,998.5
2019-06-08T03:15:15.095Z,998.6
2019-06-08T03:18:15.354Z,998.6
2019-06-08T03:21:15.314Z,998.6
2019-06-08T03:24:15.722Z,998.6
2019-06-08T03:27:15.321Z,998.7
2019-06-08T03:30:18.088Z,998.8
2019-06-08T03:33:15.391Z,998.8
2019-06-08T03:36:14.977Z,999.0
2019-06-08T03:39:15.533Z,999.0
2019-06-08T03:42:15.117Z,999.0
2019-06-08T03:45:15.667Z,999.2
2019-06-08T03:48:15.290Z,999.3
2019-06-08T03:51:15.798Z,999.4
2019-06-08T03:54:15.014Z,999.3
2019-06-08T03:57:15.621Z,999.4
2019-06-08T04:00:15.147Z,999.5
2019-06-08T04:03:15.723Z,999.4
2019-06-08T04:06:15.283Z,999.4
2019-06-08T04:09:15.796Z,999.5
2019-06-08T04:12:15.338Z,999.6
2019-06-08T04:15:15.897Z,999.6
2019-06-08T04:18:15.549Z,999.6
2019-06-08T04:21:15.109Z,999.7
2019-06-08T04:24:15.789Z,999.7
2019-06-08T04:27:15.716Z,999.8
2019-06-08T04:30:15.216Z,999.6
2019-06-08T04:33:14.953Z,999.8
2019-06-08T04:36:15.549Z,999.9
2019-06-08T04:39:15.254Z,999.8
2019-06-08T04:42:15.938Z,1000.0
2019-06-08T04:45:15.543Z,1000.0
2019-06-08T04:48:15.180Z,1000.0
2019-06-08T04:51:15.723Z,1000.1
2019-06-08T04:54:15.228Z,1000.1
2019-06-08T04:57:15.839Z,1000.2
2019-06-08T05:00:15.526Z,1000.2
2019-06-08T05:03:15.529Z,1000.2
2019-06-08T05:06:15.204Z,1000.3
2019-06-08T05:09:15.771Z,1000.2
2019-06-08T05:36:15.078Z,1000.3
2019-06-08T05:39:15.781Z,1000.3
2019-06-08T05:42:15.449Z,1000.3
2019-06-08T05:45:15.004Z,1000.3
2019-06-08T05:48:15.599Z,1000.3
2019-06-08T05:54:14.981Z,1000.3
2019-06-08T05:57:15.561Z,1000.3
2019-06-08T06:00:15.311Z,1000.5
2019-06-08T06:03:15.183Z,1000.5
2019-06-08T06:06:15.777Z,1000.5
2019-06-08T06:09:15.580Z,1000.5
2019-06-08T06:12:20.352Z,1000.7
2019-06-08T06:15:15.368Z,1000.7
2019-06-08T06:18:15.478Z,1000.6
2019-06-08T06:21:14.941Z,1000.8
2019-06-08T06:24:15.484Z,1000.7
2019-06-08T06:27:15.181Z,1000.8
2019-06-08T06:30:15.783Z,1000.8
2019-06-08T06:33:15.484Z,1001.2
2019-06-08T06:36:15.226Z,1001.0
2019-06-08T06:39:15.885Z,1000.9
2019-06-08T06:42:15.713Z,1001.1
2019-06-08T06:45:15.147Z,1001.2
2019-06-08T06:48:15.496Z,1001.1
2019-06-08T06:51:25.597Z,1001.3
2019-06-08T06:54:15.552Z,1001.4
2019-06-08T06:57:15.045Z,1001.5
2019-06-08T07:00:15.832Z,1001.5
2019-06-08T07:03:15.298Z,1001.7
2019-06-08T07:06:15.827Z,1001.7
2019-06-08T07:09:15.527Z,1001.6
2019-06-08T07:12:15.003Z,1001.9
2019-06-08T07:15:15.464Z,1001.8
2019-06-08T07:18:20.348Z,1001.8
2019-06-08T07:21:15.204Z,1001.8
2019-06-08T07:24:15.483Z,1001.8
2019-06-08T07:30:15.638Z,1002.0
2019-06-08T07:33:15.331Z,1002.1
2019-06-08T07:36:15.841Z,1002.0
2019-06-08T07:39:15.503Z,1002.1
2019-06-08T07:42:14.948Z,1002.1
2019-06-08T07:45:15.426Z,1002.2
2019-06-08T07:48:15.045Z,1002.3
2019-06-08T07:51:15.596Z,1002.3
2019-06-08T07:54:15.386Z,1002.4
2019-06-08T07:57:15.948Z,1002.4
2019-06-08T08:00:15.568Z,1002.6
2019-06-08T08:03:15.655Z,1002.5
2019-06-08T08:06:15.264Z,1002.6
2019-06-08T08:09:15.171Z,1002.5
2019-06-08T08:12:15.380Z,1002.5
2019-06-08T08:15:15.006Z,1002.4
2019-06-08T08:18:15.669Z,1002.5
2019-06-08T08:21:23.255Z,1002.5
2019-06-08T08:24:17.399Z,1002.4
2019-06-08T08:27:17.763Z,1002.4
2019-06-08T08:30:17.293Z,1002.4
2019-06-08T08:33:18.186Z,1002.3
2019-06-08T08:36:15.466Z,1002.5
2019-06-08T08:39:17.547Z,1002.6
2019-06-08T08:42:17.845Z,1002.7
2019-06-08T08:45:18.154Z,1002.7
2019-06-08T08:48:25.267Z,1002.8
2019-06-08T08:51:14.943Z,1002.7
2019-06-08T08:54:18.116Z,1002.8
2019-06-08T08:57:15.159Z,1002.8
2019-06-08T09:00:17.938Z,1002.9
2019-06-08T09:03:27.961Z,1002.8
2019-06-08T09:06:18.001Z,1002.9
2019-06-08T09:09:21.324Z,1003.0
2019-06-08T09:12:18.040Z,1003.0
2019-06-08T09:15:15.085Z,1003.0
2019-06-08T09:18:15.021Z,1003.0
2019-06-08T09:21:15.233Z,1002.8
2019-06-08T09:24:15.037Z,1002.9
2019-06-08T09:27:17.749Z,1003.0
2019-06-08T09:30:18.073Z,1003.1
2019-06-08T09:33:15.058Z,1003.1
2019-06-08T09:36:17.566Z,1003.2
2019-06-08T09:39:18.339Z,1003.0
2019-06-08T09:42:15.223Z,1003.1
2019-06-08T09:45:15.072Z,1003.2
2019-06-08T09:48:18.066Z,1003.1
2019-06-08T09:51:18.536Z,1003.1
2019-06-08T09:54:17.969Z,1003.1
2019-06-08T09:57:15.303Z,1003.2
2019-06-08T10:00:18.625Z,1003.2
2019-06-08T10:03:18.433Z,1003.2
2019-06-08T10:06:18.031Z,1003.3
2019-06-08T10:09:18.463Z,1003.4
2019-06-08T10:12:18.051Z,1003.5
2019-06-08T10:15:17.823Z,1003.4
2019-06-08T10:18:17.597Z,1003.4
2019-06-08T10:21:18.358Z,1003.3
2019-06-08T10:24:20.790Z,1003.2
2019-06-08T10:27:15.062Z,1003.2
2019-06-08T10:30:15.096Z,1003.3
2019-06-08T10:33:14.944Z,1003.3
2019-06-08T10:36:18.115Z,1003.3
2019-06-08T10:39:15.915Z,1003.4
2019-06-08T10:42:17.807Z,1003.6
2019-06-08T10:45:18.071Z,1003.6
2019-06-08T10:48:17.766Z,1003.6
2019-06-08T10:51:18.171Z,1003.4
2019-06-08T10:54:17.309Z,1003.4
2019-06-08T10:57:15.134Z,1003.4
2019-06-08T11:00:22.564Z,1003.4
2019-06-08T11:03:15.299Z,1003.5
2019-06-08T11:06:15.358Z,1003.4
2019-06-08T11:09:15.601Z,1003.4
2019-06-08T11:12:17.793Z,1003.5
2019-06-08T11:15:15.036Z,1003.4
2019-06-08T11:18:15.544Z,1003.5
2019-06-08T11:21:15.440Z,1003.5
2019-06-08T11:24:23.637Z,1003.6
2019-06-08T11:27:15.405Z,1003.6
2019-06-08T11:30:23.615Z,1003.5
2019-06-08T11:33:15.884Z,1003.6
2019-06-08T11:36:15.140Z,1003.6
2019-06-08T11:39:18.570Z,1003.6
2019-06-08T11:42:15.505Z,1003.6
2019-06-08T11:45:17.572Z,1003.8
2019-06-08T11:48:18.042Z,1003.8
2019-06-08T11:51:15.139Z,1003.7
2019-06-08T11:54:29.614Z,1003.6
2019-06-08T11:57:17.556Z,1003.7
2019-06-08T12:00:27.283Z,1003.6
2019-06-08T12:03:15.627Z,1003.7
2019-06-08T12:06:15.160Z,1003.7
2019-06-08T12:09:15.050Z,1003.7
2019-06-08T12:12:20.446Z,1003.8
2019-06-08T12:15:20.786Z,1003.6
2019-06-08T12:18:17.977Z,1003.7
2019-06-08T12:21:15.774Z,1003.7
2019-06-08T12:24:15.256Z,1003.7
2019-06-08T12:27:24.642Z,1003.6
2019-06-08T12:30:20.505Z,1003.6
2019-06-08T12:33:15.300Z,1003.6
2019-06-08T12:36:17.219Z,1003.7
2019-06-08T12:39:18.600Z,1003.6
2019-06-08T12:42:20.747Z,1003.6
2019-06-08T12:45:15.828Z,1003.6
2019-06-08T12:48:19.574Z,1003.6
2019-06-08T12:51:16.400Z,1003.7
2019-06-08T12:54:16.859Z,1003.6
2019-06-08T12:57:16.902Z,1003.6
2019-06-08T13:00:15.047Z,1003.6
2019-06-08T13:03:16.607Z,1003.6
2019-06-08T13:06:18.222Z,1003.6
2019-06-08T13:09:16.707Z,1003.7
2019-06-08T13:12:15.237Z,1003.6
2019-06-08T13:15:19.084Z,1003.6
2019-06-08T13:18:16.979Z,1003.7
2019-06-08T13:21:27.701Z,1003.7
2019-06-08T13:24:15.319Z,1003.8
2019-06-08T13:27:16.660Z,1003.8
2019-06-08T13:30:18.327Z,1003.8
2019-06-08T13:33:16.287Z,1003.8
2019-06-08T13:36:18.714Z,1003.8
2019-06-08T13:39:18.218Z,1003.9
2019-06-08T13:42:15.336Z,1003.9
2019-06-08T13:45:16.255Z,1003.8
2019-06-08T13:48:16.108Z,1003.8
2019-06-08T13:51:19.838Z,1003.8
2019-06-08T13:54:16.945Z,1003.9
2019-06-08T13:57:17.703Z,1003.8
2019-06-08T14:00:17.927Z,1003.8
2019-06-08T14:03:16.215Z,1003.8
2019-06-08T14:06:16.574Z,1003.8
2019-06-08T14:09:16.313Z,1003.7
2019-06-08T14:12:18.220Z,1003.7
2019-06-08T14:15:17.189Z,1003.8
2019-06-08T14:18:17.916Z,1003.8
2019-06-08T14:21:21.487Z,1003.8
2019-06-08T14:24:17.762Z,1003.7
2019-06-08T14:27:15.325Z,1003.9
2019-06-08T14:30:17.859Z,1003.8
2019-06-08T14:33:15.069Z,1003.7
2019-06-08T14:36:17.750Z,1003.8
2019-06-08T14:39:15.408Z,1003.8
2019-06-08T14:42:19.815Z,1003.7
2019-06-08T14:45:17.769Z,1003.7
2019-06-08T14:48:18.656Z,1003.7
2019-06-08T14:51:15.481Z,1003.7
2019-06-08T14:54:17.770Z,1003.7
2019-06-08T14:57:17.833Z,1003.7
2019-06-08T15:00:15.719Z,1003.7
2019-06-08T15:03:15.191Z,1003.7
2019-06-08T15:06:14.962Z,1003.9
2019-06-08T15:09:17.695Z,1003.7
2019-06-08T15:12:21.457Z,1003.7
2019-06-08T15:15:15.056Z,1003.6
2019-06-08T15:18:18.414Z,1003.7
2019-06-08T15:21:14.993Z,1003.7
2019-06-08T15:24:15.281Z,1003.6
2019-06-08T15:27:20.964Z,1003.6
2019-06-08T15:30:17.439Z,1003.6
2019-06-08T15:33:15.423Z,1003.6
2019-06-08T15:36:15.629Z,1003.6
2019-06-08T15:39:17.745Z,1003.6
2019-06-08T15:42:15.071Z,1003.5
2019-06-08T15:45:18.154Z,1003.4
2019-06-08T15:48:15.523Z,1003.5
2019-06-08T15:51:15.524Z,1003.5
2019-06-08T15:54:15.890Z,1003.5
2019-06-08T15:57:17.840Z,1003.4
2019-06-08T16:00:15.614Z,1003.4
2019-06-08T16:03:15.637Z,1003.5
2019-06-08T16:06:15.861Z,1003.4
2019-06-08T16:09:15.235Z,1003.4
2019-06-08T16:12:15.810Z,1003.4
2019-06-08T16:15:15.254Z,1003.6
2019-06-08T16:18:15.324Z,1003.5
2019-06-08T16:21:14.962Z,1003.5
2019-06-08T16:24:15.127Z,1003.6
2019-06-08T16:27:15.327Z,1003.5
2019-06-08T16:30:15.310Z,1003.6
2019-06-08T16:33:15.455Z,1003.6
2019-06-08T16:36:15.847Z,1003.6
2019-06-08T16:39:15.869Z,1003.7
2019-06-08T16:42:16.292Z,1003.7
2019-06-08T16:45:15.741Z,1003.6
2019-06-08T16:48:15.545Z,1003.6
2019-06-08T16:51:15.486Z,1003.6
2019-06-08T16:54:14.946Z,1003.6
2019-06-08T18:48:49.967Z,1003.9
2019-06-08T18:51:42.505Z,1003.9
2019-06-08T18:58:13.925Z,1004.0
2019-06-08T19:00:15.171Z,1004.0
2019-06-08T19:03:17.142Z,1004.0
2019-06-08T19:06:18.704Z,1004.0
2019-06-08T19:09:17.180Z,1004.1
2019-06-08T19:12:16.879Z,1004.1
2019-06-08T19:15:14.941Z,1004.1
2019-06-08T19:18:15.027Z,1004.2
2019-06-08T19:21:17.824Z,1004.1
2019-06-08T19:24:17.611Z,1004.2
2019-06-08T19:27:17.867Z,1004.2
2019-06-08T19:30:15.138Z,1004.2
2019-06-08T19:33:15.013Z,1004.3
2019-06-08T19:36:17.143Z,1004.2
2019-06-08T19:39:17.646Z,1004.3
2019-06-08T19:42:17.419Z,1004.3
2019-06-08T19:45:15.121Z,1004.4
2019-06-08T19:54:14.958Z,1004.5
2019-06-08T19:57:17.337Z,1004.5
2019-06-08T20:00:18.404Z,1004.6
2019-06-08T20:03:17.765Z,1004.6
2019-06-08T20:06:17.598Z,1004.7
2019-06-08T20:09:25.421Z,1004.7
2019-06-08T20:12:15.664Z,1004.7
2019-06-08T20:15:17.891Z,1004.8
2019-06-08T20:18:17.193Z,1004.8
2019-06-08T20:21:18.123Z,1004.8
2019-06-08T20:24:15.374Z,1004.9
2019-06-08T20:27:17.073Z,1004.9
2019-06-08T20:30:17.406Z,1004.8
2019-06-08T20:33:15.149Z,1004.8
2019-06-08T20:36:26.618Z,1004.9
2019-06-08T20:39:20.844Z,1004.9
2019-06-08T20:42:17.389Z,1004.9
2019-06-08T20:45:20.597Z,1004.9
2019-06-08T20:48:17.696Z,1004.9
2019-06-08T20:54:17.258Z,1005.0
2019-06-08T20:57:17.038Z,1005.0
2019-06-08T21:00:15.831Z,1005.1
2019-06-08T21:03:20.469Z,1005.0
2019-06-08T21:06:17.163Z,1005.1
2019-06-08T21:12:20.819Z,1005.1
2019-06-08T21:15:24.250Z,1005.2
2019-06-08T21:18:16.391Z,1005.1
2019-06-08T21:21:17.551Z,1005.1
2019-06-08T21:24:17.349Z,1005.1
2019-06-08T21:27:20.689Z,1005.2
2019-06-08T21:33:15.212Z,1005.1
2019-06-08T21:36:18.041Z,1005.1
2019-06-08T21:39:17.359Z,1005.1
2019-06-08T21:42:15.389Z,1005.1
2019-06-08T21:48:27.501Z,1005.2
2019-06-08T21:51:15.639Z,1005.2
2019-06-08T21:54:17.519Z,1005.2
2019-06-08T21:57:18.399Z,1005.3
2019-06-08T22:00:29.344Z,1005.4
2019-06-08T22:06:17.575Z,1005.3
2019-06-08T22:12:17.369Z,1005.4
2019-06-08T22:15:18.101Z,1005.4
2019-06-08T22:18:18.292Z,1005.4
2019-06-08T22:21:17.896Z,1005.5
2019-06-08T22:24:17.139Z,1005.5
2019-06-08T22:28:19.773Z,1005.5
2019-06-08T22:30:35.364Z,1005.5
2019-06-08T22:33:17.440Z,1005.5
2019-06-08T22:36:15.355Z,1005.4
2019-06-08T22:39:17.545Z,1005.5
2019-06-08T22:42:17.596Z,1005.5
2019-06-08T22:45:17.528Z,1005.5
2019-06-08T22:48:15.233Z,1005.5
2019-06-08T22:51:18.219Z,1005.5
2019-06-08T22:54:16.991Z,1005.5
2019-06-08T22:57:18.286Z,1005.5
2019-06-08T23:00:18.303Z,1005.5
2019-06-08T23:03:18.227Z,1005.5
2019-06-08T23:06:17.423Z,1005.5
2019-06-08T23:09:17.803Z,1005.5
2019-06-08T23:12:18.043Z,1005.5
2019-06-08T23:15:18.140Z,1005.5
2019-06-08T23:18:17.651Z,1005.5
2019-06-08T23:21:18.139Z,1005.5
2019-06-08T23:24:15.047Z,1005.5
2019-06-08T23:27:17.572Z,1005.5
2019-06-08T23:30:15.227Z,1005.5
2019-06-08T23:33:18.634Z,1005.5
2019-06-08T23:36:45.578Z,1005.5
2019-06-08T23:39:20.209Z,1005.4
2019-06-08T23:42:17.742Z,1005.4
2019-06-08T23:45:17.655Z,1005.5
2019-06-08T23:48:17.423Z,1005.4
2019-06-08T23:51:15.007Z,1005.4
2019-06-08T23:54:18.218Z,1005.3
2019-06-08T23:57:15.158Z,1005.3
